地図

経路データ

SID SEASON NUMBER BASIN SUBBASIN NAME ISO_TIME NATURE LAT LON WMO_WIND WMO_PRES WMO_AGENCY TRACK_TYPE DIST2LAND LANDFALL IFLAG USA_AGENCY USA_ATCF_ID USA_LAT USA_LON USA_RECORD USA_STATUS USA_WIND USA_PRES USA_SSHS USA_R34_NE USA_R34_SE USA_R34_SW USA_R34_NW USA_R50_NE USA_R50_SE USA_R50_SW USA_R50_NW USA_R64_NE USA_R64_SE USA_R64_SW USA_R64_NW USA_POCI USA_ROCI USA_RMW USA_EYE TOKYO_LAT TOKYO_LON TOKYO_GRADE TOKYO_WIND TOKYO_PRES TOKYO_R50_DIR TOKYO_R50_LONG TOKYO_R50_SHORT TOKYO_R30_DIR TOKYO_R30_LONG TOKYO_R30_SHORT TOKYO_LAND CMA_LAT CMA_LON CMA_CAT CMA_WIND CMA_PRES HKO_LAT HKO_LON HKO_CAT HKO_WIND HKO_PRES NEWDELHI_LAT NEWDELHI_LON NEWDELHI_GRADE NEWDELHI_WIND NEWDELHI_PRES NEWDELHI_CI NEWDELHI_DP NEWDELHI_POCI REUNION_LAT REUNION_LON REUNION_TYPE REUNION_WIND REUNION_PRES REUNION_TNUM REUNION_CI REUNION_RMW REUNION_R34_NE REUNION_R34_SE REUNION_R34_SW REUNION_R34_NW REUNION_R50_NE REUNION_R50_SE REUNION_R50_SW REUNION_R50_NW REUNION_R64_NE REUNION_R64_SE REUNION_R64_SW REUNION_R64_NW BOM_LAT BOM_LON BOM_TYPE BOM_WIND BOM_PRES BOM_TNUM BOM_CI BOM_RMW BOM_R34_NE BOM_R34_SE BOM_R34_SW BOM_R34_NW BOM_R50_NE BOM_R50_SE BOM_R50_SW BOM_R50_NW BOM_R64_NE BOM_R64_SE BOM_R64_SW BOM_R64_NW BOM_ROCI BOM_POCI BOM_EYE BOM_POS_METHOD BOM_PRES_METHOD NADI_LAT NADI_LON NADI_CAT NADI_WIND NADI_PRES WELLINGTON_LAT WELLINGTON_LON WELLINGTON_WIND WELLINGTON_PRES DS824_LAT DS824_LON DS824_STAGE DS824_WIND DS824_PRES TD9636_LAT TD9636_LON TD9636_STAGE TD9636_WIND TD9636_PRES TD9635_LAT TD9635_LON TD9635_WIND TD9635_PRES TD9635_ROCI NEUMANN_LAT NEUMANN_LON NEUMANN_CLASS NEUMANN_WIND NEUMANN_PRES MLC_LAT MLC_LON MLC_CLASS MLC_WIND MLC_PRES USA_GUST BOM_GUST BOM_GUST_PER REUNION_GUST REUNION_GUST_PER USA_SEAHGT USA_SEARAD_NE USA_SEARAD_SE USA_SEARAD_SW USA_SEARAD_NW STORM_SPEED STORM_DIR
1965286N17313 1965 109 NA NA ELENA 1965-10-12 12:00:00 TS 16.5000 -47.5000 30 hurdat_atl main 1381 1381 O_____________ hurdat_atl AL061965 16.5000 -47.5000 TD 30 -1 14 316
1965286N17313 1965 109 NA NA ELENA 1965-10-12 15:00:00 TS 17.0003 -47.9995 main 1410 1410 P_____________ AL061965 17.0003 -47.9995 TD 30 -1 14 316
1965286N17313 1965 109 NA NA ELENA 1965-10-12 18:00:00 TS 17.5000 -48.5000 30 hurdat_atl main 1439 1439 O_____________ hurdat_atl AL061965 17.5000 -48.5000 TD 30 -1 14 316
1965286N17313 1965 109 NA NA ELENA 1965-10-12 21:00:00 TS 17.9999 -49.0003 main 1467 1467 P_____________ AL061965 17.9999 -49.0003 TD 30 -1 14 316
1965286N17313 1965 109 NA NA ELENA 1965-10-13 00:00:00 TS 18.5000 -49.5000 30 hurdat_atl main 1500 1500 O_____________ hurdat_atl AL061965 18.5000 -49.5000 TD 30 -1 14 317
1965286N17313 1965 109 NA NA ELENA 1965-10-13 03:00:00 TS 18.9998 -49.9929 main 1503 1496 P_____________ AL061965 18.9998 -49.9929 TD 32 -1 14 317
1965286N17313 1965 109 NA NA ELENA 1965-10-13 06:00:00 TS 19.5000 -50.5000 35 hurdat_atl main 1496 1486 O_____________ hurdat_atl AL061965 19.5000 -50.5000 TS 35 0 14 315
1965286N17313 1965 109 NA NA ELENA 1965-10-13 09:00:00 TS 20.0074 -51.0427 main 1493 1485 P_____________ AL061965 20.0074 -51.0427 TS 35 0 14 314
1965286N17313 1965 109 NA NA ELENA 1965-10-13 12:00:00 TS 20.5000 -51.6000 35 hurdat_atl main 1486 1440 O_____________ hurdat_atl AL061965 20.5000 -51.6000 TS 35 0 14 312
1965286N17313 1965 109 NA NA ELENA 1965-10-13 15:00:00 TS 20.9574 -52.1578 main 1432 1389 P_____________ AL061965 20.9574 -52.1578 TS 35 0 14 311
1965286N17313 1965 109 NA NA ELENA 1965-10-13 18:00:00 TS 21.4000 -52.7000 35 1005 hurdat_atl main 1389 1348 O_____________ hurdat_atl AL061965 21.4000 -52.7000 TS 35 1005 0 13 313
1965286N17313 1965 109 NA NA ELENA 1965-10-13 21:00:00 TS 21.8573 -53.2078 main 1351 1314 P_____________ AL061965 21.8573 -53.2078 TS 37 0 13 314
1965286N17313 1965 109 NA NA ELENA 1965-10-14 00:00:00 TS 22.3000 -53.7000 40 hurdat_atl main 1314 1279 O_____________ hurdat_atl AL061965 22.3000 -53.7000 TS 40 0 13 313
1965286N17313 1965 109 NA NA ELENA 1965-10-14 03:00:00 TS 22.7073 -54.2004 main 1279 1248 P_____________ AL061965 22.7073 -54.2004 TS 40 0 12 311
1965286N17313 1965 109 NA NA ELENA 1965-10-14 06:00:00 TS 23.1000 -54.7000 40 hurdat_atl main 1248 1220 O_____________ hurdat_atl AL061965 23.1000 -54.7000 TS 40 0 12 311
1965286N17313 1965 109 NA NA ELENA 1965-10-14 09:00:00 TS 23.4999 -55.2077 main 1220 1195 P_____________ AL061965 23.4999 -55.2077 TS 40 0 12 311
1965286N17313 1965 109 NA NA ELENA 1965-10-14 12:00:00 TS 23.9000 -55.7000 40 hurdat_atl main 1195 1177 O_____________ hurdat_atl AL061965 23.9000 -55.7000 TS 40 0 12 313
1965286N17313 1965 109 NA NA ELENA 1965-10-14 15:00:00 TS 24.3299 -56.1650 main 1175 1166 P_____________ AL061965 24.3299 -56.1650 TS 42 0 11 314
1965286N17313 1965 109 NA NA ELENA 1965-10-14 18:00:00 TS 24.7000 -56.6000 45 1005 hurdat_atl main 1166 1147 O_____________ hurdat_atl AL061965 24.7000 -56.6000 TS 45 1005 0 10 308
1965286N17313 1965 109 NA NA ELENA 1965-10-14 21:00:00 TS 24.9299 -57.0229 main 1147 1129 P_____________ AL061965 24.9299 -57.0229 TS 45 1005 0 8 299
1965286N17313 1965 109 NA NA ELENA 1965-10-15 00:00:00 TS 25.1000 -57.4000 45 hurdat_atl main 1129 1121 I_____________ hurdat_atl AL061965 25.1000 -57.4000 TS 45 1005 0 7 300
1965286N17313 1965 109 NA NA ELENA 1965-10-15 03:00:00 TS 25.2999 -57.7226 main 1121 1114 P_____________ AL061965 25.2999 -57.7226 TS 45 1005 0 7 306
1965286N17313 1965 109 NA NA ELENA 1965-10-15 06:00:00 TS 25.5000 -58.0000 45 1005 hurdat_atl main 1114 1107 O_____________ hurdat_atl AL061965 25.5000 -58.0000 TS 45 1005 0 6 309
1965286N17313 1965 109 NA NA ELENA 1965-10-15 09:00:00 TS 25.7000 -58.2651 main 1109 1109 P_____________ AL061965 25.7000 -58.2651 TS 47 1003 0 6 312
1965286N17313 1965 109 NA NA ELENA 1965-10-15 12:00:00 TS 25.9000 -58.5000 50 1001 hurdat_atl main 1111 1106 O_____________ hurdat_atl AL061965 25.9000 -58.5000 TS 50 1001 0 6 315
1965286N17313 1965 109 NA NA ELENA 1965-10-15 15:00:00 TS 26.0924 -58.7002 main 1115 1108 P_____________ AL061965 26.0924 -58.7002 TS 52 998 0 5 318
1965286N17313 1965 109 NA NA ELENA 1965-10-15 18:00:00 TS 26.3000 -58.9000 55 995 hurdat_atl main 1119 1119 O_____________ hurdat_atl AL061965 26.3000 -58.9000 TS 55 995 0 6 319
1965286N17313 1965 109 NA NA ELENA 1965-10-15 21:00:00 TS 26.5425 -59.1425 main 1124 1124 P_____________ AL061965 26.5425 -59.1425 TS 55 995 0 7 318
1965286N17313 1965 109 NA NA ELENA 1965-10-16 00:00:00 TS 26.8000 -59.4000 55 995 hurdat_atl main 1133 1131 O_____________ hurdat_atl AL061965 26.8000 -59.4000 TS 55 995 0 7 317
1965286N17313 1965 109 NA NA ELENA 1965-10-16 03:00:00 TS 27.0350 -59.6576 main 1135 1135 P_____________ AL061965 27.0350 -59.6576 TS 57 993 0 7 318
1965286N17313 1965 109 NA NA ELENA 1965-10-16 06:00:00 TS 27.3000 -59.9000 60 991 hurdat_atl main 1153 1153 O_____________ hurdat_atl AL061965 27.3000 -59.9000 TS 60 991 0 7 323
1965286N17313 1965 109 NA NA ELENA 1965-10-16 09:00:00 TS 27.6200 -60.1447 main 1171 1166 P_____________ AL061965 27.6200 -60.1447 TS 60 991 0 8 333
1965286N17313 1965 109 NA NA ELENA 1965-10-16 12:00:00 TS 28.0000 -60.3000 60 992 hurdat_atl main 1201 1201 O_____________ hurdat_atl AL061965 28.0000 -60.3000 TS 60 992 0 8 348
1965286N17313 1965 109 NA NA ELENA 1965-10-16 15:00:00 TS 28.4198 -60.3395 main 1241 1241 P_____________ AL061965 28.4198 -60.3395 TS 57 992 0 9 5
1965286N17313 1965 109 NA NA ELENA 1965-10-16 18:00:00 TS 28.9000 -60.2000 55 992 hurdat_atl main 1295 1295 O_____________ hurdat_atl AL061965 28.9000 -60.2000 TS 55 992 0 11 22
1965286N17313 1965 109 NA NA ELENA 1965-10-16 21:00:00 TS 29.4050 -59.8746 main 1358 1358 P_____________ AL061965 29.4050 -59.8746 TS 55 992 0 13 32
1965286N17313 1965 109 NA NA ELENA 1965-10-17 00:00:00 TS 30.0000 -59.4000 55 hurdat_atl main 1439 1439 I_____________ hurdat_atl AL061965 30.0000 -59.4000 TS 55 992 0 15 32
1965286N17313 1965 109 NA NA ELENA 1965-10-17 03:00:00 TS 30.7040 -58.9379 main 1531 1470 P_____________ AL061965 30.7040 -58.9379 TS 57 992 0 18 32
1965286N17313 1965 109 NA NA ELENA 1965-10-17 06:00:00 TS 31.5000 -58.3000 60 992 hurdat_atl main 1470 1420 O_____________ hurdat_atl AL061965 31.5000 -58.3000 TS 60 992 0 21 38
1965286N17313 1965 109 NA NA ELENA 1965-10-17 09:00:00 TS 32.3562 -57.4342 main 1414 1381 P_____________ AL061965 32.3562 -57.4342 TS 65 990 1 24 45
1965286N17313 1965 109 NA NA ELENA 1965-10-17 12:00:00 TS 33.2000 -56.3000 70 988 hurdat_atl main 1386 1357 O_____________ hurdat_atl AL061965 33.2000 -56.3000 HU 70 988 1 26 53
1965286N17313 1965 109 NA NA ELENA 1965-10-17 15:00:00 TS 33.9379 -54.9166 main 1363 1335 P_____________ AL061965 33.9379 -54.9166 HU 72 987 1 28 60
1965286N17313 1965 109 NA NA ELENA 1965-10-17 18:00:00 TS 34.6000 -53.4000 75 986 hurdat_atl main 1335 1271 O_____________ hurdat_atl AL061965 34.6000 -53.4000 HU 75 986 1 27 63
1965286N17313 1965 109 NA NA ELENA 1965-10-17 21:00:00 TS 35.1891 -51.9895 main 1272 1220 P_____________ AL061965 35.1891 -51.9895 HU 80 1 27 63
1965286N17313 1965 109 NA NA ELENA 1965-10-18 00:00:00 TS 35.8000 -50.5000 85 hurdat_atl main 1222 1178 O_____________ hurdat_atl AL061965 35.8000 -50.5000 HU 85 2 29 63
1965286N17313 1965 109 NA NA ELENA 1965-10-18 03:00:00 TS 36.5095 -48.8435 main 1180 1149 P_____________ AL061965 36.5095 -48.8435 HU 87 2 32 62
1965286N17313 1965 109 NA NA ELENA 1965-10-18 06:00:00 TS 37.3000 -47.0000 90 hurdat_atl main 1152 1147 O_____________ hurdat_atl AL061965 37.3000 -47.0000 HU 90 2 35 63
1965286N17313 1965 109 NA NA ELENA 1965-10-18 09:00:00 TS 38.1128 -44.9267 main 1162 1158 P_____________ AL061965 38.1128 -44.9267 HU 92 2 37 63
1965286N17313 1965 109 NA NA ELENA 1965-10-18 12:00:00 TS 39.0000 -42.8000 95 977 hurdat_atl main 1193 1193 O_____________ hurdat_atl AL061965 39.0000 -42.8000 HU 95 977 2 37 61
1965286N17313 1965 109 NA NA ELENA 1965-10-18 15:00:00 TS 39.8910 -40.8155 main 1244 1244 P_____________ AL061965 39.8910 -40.8155 HU 95 2 36 56
1965286N17313 1965 109 NA NA ELENA 1965-10-18 18:00:00 TS 41.0000 -38.9000 95 hurdat_atl main 1294 1294 O_____________ hurdat_atl AL061965 41.0000 -38.9000 HU 95 2 39 49
1965286N17313 1965 109 NA NA ELENA 1965-10-18 21:00:00 TS 42.4825 -36.8869 main 1346 1346 P_____________ AL061965 42.4825 -36.8869 HU 90 2 42 43
1965286N17313 1965 109 NA NA ELENA 1965-10-19 00:00:00 TS 44.1000 -35.0000 85 hurdat_atl main 1406 1406 O_____________ hurdat_atl AL061965 44.1000 -35.0000 HU 85 2 40 40
1965286N17313 1965 109 NA NA ELENA 1965-10-19 03:00:00 TS 45.5556 -33.3151 main 1480 1480 P_____________ AL061965 45.5556 -33.3151 HU 80 1 36 36
1965286N17313 1965 109 NA NA ELENA 1965-10-19 06:00:00 ET 47.0000 -32.0000 75 hurdat_atl main 1544 1512 O_____________ hurdat_atl AL061965 47.0000 -32.0000 EX 75 -4 32 28
1965286N17313 1965 109 NA NA ELENA 1965-10-19 09:00:00 ET 48.4150 -31.0545 main 1505 1379 P_____________ AL061965 48.4150 -31.0545 EX 72 -4 32 18
1965286N17313 1965 109 NA NA ELENA 1965-10-19 12:00:00 ET 50.0000 -30.5000 70 hurdat_atl main 1369 1204 O_____________ hurdat_atl AL061965 50.0000 -30.5000 EX 70 -4 36 9
1965286N17313 1965 109 NA NA ELENA 1965-10-19 15:00:00 ET 51.9988 -30.2004 main 1195 1042 P_____________ AL061965 51.9988 -30.2004 EX 70 -4 40 4
1965286N17313 1965 109 NA NA ELENA 1965-10-19 18:00:00 ET 54.0000 -30.0000 70 hurdat_atl main 1034 941 O_____________ hurdat_atl AL061965 54.0000 -30.0000 EX 70 -4 36 6
1965286N17313 1965 109 NA NA ELENA 1965-10-19 21:00:00 ET 55.5744 -29.5693 main 934 836 P_____________ AL061965 55.5744 -29.5693 EX 67 -4 30 11
1965286N17313 1965 109 NA NA ELENA 1965-10-20 00:00:00 ET 57.0000 -29.0000 65 hurdat_atl main 826 677 O_____________ hurdat_atl AL061965 57.0000 -29.0000 EX 65 -4 29 14
1965286N17313 1965 109 NA NA ELENA 1965-10-20 03:00:00 ET 58.4255 -28.2807 main 667 498 P_____________ AL061965 58.4255 -28.2807 EX 62 -4 31 15
1965286N17313 1965 109 NA NA ELENA 1965-10-20 06:00:00 ET 60.0000 -27.5000 60 hurdat_atl main 488 302 O_____________ hurdat_atl AL061965 60.0000 -27.5000 EX 60 -4 35 12
1965286N17313 1965 109 NA NA ELENA 1965-10-20 09:00:00 ET 61.9002 -26.7592 main 294 137 P_____________ AL061965 61.9002 -26.7592 EX 55 -4 40 10
1965286N17313 1965 109 NA NA ELENA 1965-10-20 12:00:00 ET 64.0000 -26.0000 50 hurdat_atl main 130 O_____________ hurdat_atl AL061965 64.0000 -26.0000 EX 50 -4 42 9

IBTrACS Databaseについて

本データベースは、米国NOAAが公開する1842年以降の世界の熱帯低気圧のベストトラックデータアーカイブInternational Best Track Archive for Climate Stewardship (IBTrACS)を、ウェブで閲覧しやすい形式に変換したものです。

最終更新日:2021-10-19